Time;durP1;ratioP1;P1;durP2;ratioP2;P2;SDS_P1;SDS_P2;PMS_P1;PMS_P2;Temp;Humidity;BMP_temperature;BMP_pressure;BME280_temperature;BME280_humidity;BME280_pressure;Samples;Min_cycle;Max_cycle;Signal;HPM_P1;HPM_P2
2023/10/27 00:01:18;;;;;;;6.70;4.00;;;10.40;99.90;;;;;;5014415;28;20548;-68
2023/10/27 00:03:43;;;;;;;7.10;3.83;;;10.40;99.90;;;;;;5014271;28;20186;-68
2023/10/27 00:06:09;;;;;;;6.70;3.50;;;10.40;99.90;;;;;;5014543;28;20175;-68
2023/10/27 00:08:34;;;;;;;4.33;3.67;;;10.40;99.90;;;;;;5012734;28;20727;-68
2023/10/27 00:11:06;;;;;;;5.47;3.87;;;10.40;99.90;;;;;;5014319;28;20185;-68
2023/10/27 00:13:32;;;;;;;5.43;3.90;;;10.40;99.90;;;;;;5013857;28;20201;-68
2023/10/27 00:15:57;;;;;;;6.83;3.97;;;10.30;99.90;;;;;;5014279;28;20414;-68
2023/10/27 00:18:23;;;;;;;7.57;4.30;;;10.30;99.90;;;;;;5011268;28;20203;-68
2023/10/27 00:20:48;;;;;;;4.90;3.27;;;10.30;99.90;;;;;;5013179;28;20183;-68
2023/10/27 00:23:15;;;;;;;6.50;3.47;;;10.30;99.90;;;;;;5013008;28;20171;-68
2023/10/27 00:25:41;;;;;;;4.10;3.70;;;10.30;99.90;;;;;;5014094;28;20629;-68
2023/10/27 00:28:06;;;;;;;4.10;3.07;;;10.30;99.90;;;;;;5013797;28;20468;-68
2023/10/27 00:30:32;;;;;;;8.20;3.53;;;10.20;99.90;;;;;;5011099;28;20229;-67
2023/10/27 00:32:57;;;;;;;5.07;3.50;;;10.20;99.90;;;;;;5013351;28;20711;-68
2023/10/27 00:35:23;;;;;;;6.83;3.30;;;10.20;99.90;;;;;;5012859;28;20178;-68
2023/10/27 00:37:48;;;;;;;9.73;3.60;;;10.20;99.90;;;;;;5011978;28;20204;-67
2023/10/27 00:40:14;;;;;;;5.80;3.60;;;10.20;99.90;;;;;;5011562;28;20185;-68
2023/10/27 00:42:41;;;;;;;11.03;4.07;;;10.20;99.90;;;;;;5012755;28;20179;-68
2023/10/27 00:45:07;;;;;;;4.80;3.20;;;10.10;99.90;;;;;;5013286;28;20186;-68
2023/10/27 00:47:33;;;;;;;4.27;3.33;;;10.10;99.90;;;;;;5006447;28;20457;-68
2023/10/27 00:49:59;;;;;;;3.57;3.27;;;10.10;99.90;;;;;;5012657;28;20776;-68
2023/10/27 00:52:26;;;;;;;4.30;3.10;;;10.10;99.90;;;;;;5012852;28;20437;-68
2023/10/27 00:54:53;;;;;;;5.73;3.57;;;10.10;99.90;;;;;;5013315;28;20246;-68
2023/10/27 00:57:22;;;;;;;3.50;3.10;;;10.10;99.90;;;;;;5013376;28;20442;-67
2023/10/27 00:59:47;;;;;;;3.97;3.03;;;10.10;99.90;;;;;;5009463;28;20815;-68
2023/10/27 01:02:16;;;;;;;4.83;2.80;;;10.00;99.90;;;;;;5012999;28;20414;-67
2023/10/27 01:04:42;;;;;;;6.13;3.13;;;10.00;99.90;;;;;;4994534;28;20641;-68
2023/10/27 01:07:08;;;;;;;4.73;3.20;;;10.00;99.90;;;;;;5012916;28;20966;-67
2023/10/27 01:09:33;;;;;;;6.20;2.80;;;10.00;99.90;;;;;;5012799;28;20422;-68
2023/10/27 01:11:59;;;;;;;4.50;3.00;;;10.00;99.90;;;;;;5012920;28;20185;-67
2023/10/27 01:14:26;;;;;;;4.20;3.40;;;10.00;99.90;;;;;;5012623;28;20301;-67
2023/10/27 01:16:52;;;;;;;3.10;2.77;;;10.00;99.90;;;;;;5010884;28;20282;-68
2023/10/27 01:19:18;;;;;;;5.90;4.23;;;10.00;99.90;;;;;;5010700;28;20864;-67
2023/10/27 01:21:44;;;;;;;4.13;2.63;;;10.00;99.90;;;;;;5010738;28;20206;-68
2023/10/27 01:24:09;;;;;;;3.97;3.57;;;10.00;99.90;;;;;;5012685;28;20278;-68
2023/10/27 01:26:35;;;;;;;8.10;3.00;;;10.00;99.90;;;;;;5011875;28;20263;-67
2023/10/27 01:29:00;;;;;;;6.10;3.30;;;10.00;99.90;;;;;;5012384;28;20282;-68
2023/10/27 01:31:26;;;;;;;4.87;3.47;;;10.00;99.90;;;;;;5012234;28;20703;-67
2023/10/27 01:33:52;;;;;;;3.37;3.07;;;10.00;99.90;;;;;;5003587;28;20573;-67
2023/10/27 01:36:17;;;;;;;3.67;2.90;;;10.00;99.90;;;;;;5001403;28;20457;-68
2023/10/27 01:38:43;;;;;;;3.90;3.10;;;10.00;99.90;;;;;;5011783;28;20277;-68
2023/10/27 01:41:08;;;;;;;9.00;3.33;;;10.00;99.90;;;;;;5010454;28;20170;-67
2023/10/27 01:43:34;;;;;;;6.37;3.00;;;10.00;99.90;;;;;;5010976;28;20206;-68
2023/10/27 01:45:59;;;;;;;4.40;2.70;;;10.00;99.90;;;;;;5011264;28;20687;-67
2023/10/27 01:48:25;;;;;;;4.50;2.83;;;10.00;99.90;;;;;;5011031;28;20560;-68
2023/10/27 01:50:50;;;;;;;5.70;3.40;;;9.90;99.90;;;;;;5007076;28;20179;-67
2023/10/27 01:53:16;;;;;;;6.03;3.17;;;9.90;99.90;;;;;;5011741;28;20668;-67
2023/10/27 01:55:41;;;;;;;5.10;4.60;;;9.90;99.90;;;;;;5012607;28;20246;-67
2023/10/27 01:58:07;;;;;;;4.97;2.13;;;9.90;99.90;;;;;;5011112;28;20280;-67
2023/10/27 02:00:33;;;;;;;3.50;2.53;;;9.90;99.90;;;;;;5009242;28;20179;-67
2023/10/27 02:02:58;;;;;;;4.67;2.83;;;9.90;99.90;;;;;;5011844;28;20429;-67
2023/10/27 02:05:24;;;;;;;4.80;2.90;;;9.90;99.90;;;;;;5012178;28;20185;-67
2023/10/27 02:07:49;;;;;;;6.10;3.23;;;9.90;99.90;;;;;;5025758;28;20615;-67
2023/10/27 02:10:15;;;;;;;3.00;2.70;;;9.80;99.90;;;;;;5011424;28;20182;-67
2023/10/27 02:12:40;;;;;;;4.87;2.70;;;9.80;99.90;;;;;;5011952;28;20194;-67
2023/10/27 02:15:08;;;;;;;3.27;3.00;;;9.80;99.90;;;;;;5011789;28;20182;-68
2023/10/27 02:17:33;;;;;;;3.70;2.23;;;9.80;99.90;;;;;;5009850;28;20264;-67
2023/10/27 02:19:59;;;;;;;7.53;3.10;;;9.80;99.90;;;;;;5010024;28;21072;-67
2023/10/27 02:22:24;;;;;;;4.03;2.70;;;9.80;99.90;;;;;;5009951;28;20190;-67
2023/10/27 02:24:50;;;;;;;7.97;4.93;;;9.80;99.90;;;;;;4998904;28;20535;-67
2023/10/27 02:27:16;;;;;;;5.33;2.40;;;9.80;99.90;;;;;;4997562;28;20190;-68
2023/10/27 02:29:41;;;;;;;4.60;3.27;;;9.80;99.90;;;;;;5012110;28;20401;-67
2023/10/27 02:32:07;;;;;;;4.37;3.13;;;9.70;99.90;;;;;;5009555;28;20569;-67
2023/10/27 02:34:32;;;;;;;10.30;3.27;;;9.80;99.90;;;;;;5011260;28;20210;-67
2023/10/27 02:36:58;;;;;;;4.90;2.60;;;9.70;99.90;;;;;;5012083;28;20191;-68
2023/10/27 02:39:23;;;;;;;2.43;2.17;;;9.70;99.90;;;;;;5009321;28;20191;-67
2023/10/27 02:41:49;;;;;;;3.00;2.80;;;9.70;99.90;;;;;;5009528;28;20175;-68
2023/10/27 02:44:14;;;;;;;3.40;3.00;;;9.70;99.90;;;;;;5011238;28;20700;-68
2023/10/27 02:46:40;;;;;;;3.67;2.93;;;9.70;99.90;;;;;;5010819;28;20279;-67
2023/10/27 02:49:06;;;;;;;5.53;2.83;;;9.70;99.90;;;;;;5011853;28;20171;-67
2023/10/27 02:51:32;;;;;;;3.90;3.10;;;9.70;99.90;;;;;;5011355;28;20441;-68
2023/10/27 02:53:58;;;;;;;5.60;2.03;;;9.70;99.90;;;;;;5011558;28;20195;-67
2023/10/27 02:56:24;;;;;;;3.10;2.10;;;9.80;99.90;;;;;;5003854;28;20425;-67
2023/10/27 02:58:50;;;;;;;2.93;2.53;;;9.90;99.90;;;;;;5009870;28;20217;-68
2023/10/27 03:01:16;;;;;;;6.50;2.20;;;9.90;99.90;;;;;;5008510;28;20186;-67
2023/10/27 03:03:43;;;;;;;2.10;1.90;;;10.00;99.90;;;;;;5010964;28;20504;-67
2023/10/27 03:06:10;;;;;;;1.90;1.77;;;10.00;99.90;;;;;;5009990;28;20440;-68
2023/10/27 03:08:36;;;;;;;3.20;2.40;;;9.90;99.90;;;;;;5010839;28;20469;-67
2023/10/27 03:11:02;;;;;;;2.30;2.10;;;9.80;99.90;;;;;;5011552;28;20481;-67
2023/10/27 03:13:27;;;;;;;4.70;2.30;;;9.90;99.90;;;;;;5008080;28;20469;-68
2023/10/27 03:15:53;;;;;;;2.80;2.27;;;9.80;99.90;;;;;;5011686;28;20179;-68
2023/10/27 03:18:19;;;;;;;1.77;1.67;;;9.80;99.90;;;;;;5011100;28;20556;-68
2023/10/27 03:20:44;;;;;;;5.93;2.10;;;9.80;99.90;;;;;;5010119;28;20217;-68
2023/10/27 03:23:10;;;;;;;6.13;1.90;;;9.80;99.90;;;;;;5009590;28;20576;-68
2023/10/27 03:25:35;;;;;;;3.93;2.27;;;9.70;99.90;;;;;;5011919;28;20183;-68
2023/10/27 03:28:01;;;;;;;9.27;2.27;;;9.70;99.90;;;;;;5014868;28;20216;-68
2023/10/27 03:30:27;;;;;;;5.63;2.23;;;9.70;99.90;;;;;;5002267;28;20669;-68
2023/10/27 03:32:53;;;;;;;4.17;2.53;;;9.70;99.90;;;;;;5014181;28;20199;-68
2023/10/27 03:35:19;;;;;;;2.63;2.27;;;9.70;99.90;;;;;;5014631;28;20807;-67
2023/10/27 03:37:45;;;;;;;5.00;1.77;;;9.70;99.90;;;;;;5014243;28;20444;-68
2023/10/27 03:40:11;;;;;;;2.83;2.30;;;9.70;99.90;;;;;;5014197;28;20171;-68
2023/10/27 03:42:36;;;;;;;2.10;2.00;;;9.70;99.90;;;;;;5009013;28;20193;-68
2023/10/27 03:45:02;;;;;;;3.70;1.80;;;9.70;99.90;;;;;;5011851;28;20931;-68
2023/10/27 03:47:28;;;;;;;3.20;1.80;;;9.70;99.90;;;;;;5012398;28;20225;-68
2023/10/27 03:49:53;;;;;;;5.90;2.40;;;9.70;99.90;;;;;;5013770;28;20179;-68
2023/10/27 03:52:19;;;;;;;5.20;2.90;;;9.70;99.90;;;;;;5013549;28;20182;-67
2023/10/27 03:54:44;;;;;;;3.63;2.37;;;9.70;99.90;;;;;;5013989;28;20232;-68
2023/10/27 03:57:10;;;;;;;7.63;2.20;;;9.70;99.90;;;;;;5013897;28;20217;-68
2023/10/27 03:59:35;;;;;;;2.67;2.07;;;9.70;99.90;;;;;;5013678;28;20605;-67
2023/10/27 04:02:01;;;;;;;3.20;2.30;;;9.70;99.90;;;;;;5011465;28;20258;-67
2023/10/27 04:04:26;;;;;;;6.00;2.57;;;9.70;99.90;;;;;;5013457;28;20668;-68
2023/10/27 04:06:53;;;;;;;4.73;1.90;;;9.70;99.90;;;;;;5013534;28;20294;-67
2023/10/27 04:09:21;;;;;;;2.70;2.50;;;9.60;99.90;;;;;;5013767;28;20179;-68
2023/10/27 04:11:46;;;;;;;2.00;1.77;;;9.60;99.90;;;;;;5014094;28;20430;-68
2023/10/27 04:14:12;;;;;;;2.73;2.10;;;9.60;99.90;;;;;;5013320;28;21026;-67
2023/10/27 04:16:37;;;;;;;4.30;3.30;;;9.60;99.90;;;;;;5013623;28;20715;-68
2023/10/27 04:19:03;;;;;;;5.30;2.60;;;9.60;99.90;;;;;;5014295;28;20166;-68
2023/10/27 04:21:29;;;;;;;5.83;2.60;;;9.70;99.90;;;;;;5011873;28;20194;-67
2023/10/27 04:23:55;;;;;;;3.67;2.10;;;9.60;99.90;;;;;;5012165;28;20183;-67
2023/10/27 04:26:20;;;;;;;2.50;2.30;;;9.60;99.90;;;;;;5012810;28;20187;-67
2023/10/27 04:28:46;;;;;;;4.30;2.17;;;9.60;99.90;;;;;;5013924;28;20495;-68
2023/10/27 04:31:11;;;;;;;3.60;2.30;;;9.60;99.90;;;;;;5013445;28;20556;-67
2023/10/27 04:33:37;;;;;;;4.30;2.40;;;9.60;99.90;;;;;;5012246;28;20207;-67
2023/10/27 04:36:04;;;;;;;2.80;1.73;;;9.60;99.90;;;;;;5012620;28;20187;-67
2023/10/27 04:38:30;;;;;;;7.23;2.07;;;9.60;99.90;;;;;;5012794;28;20225;-67
2023/10/27 04:40:55;;;;;;;3.17;1.77;;;9.70;99.90;;;;;;5012904;28;20418;-67
2023/10/27 04:43:21;;;;;;;1.67;1.30;;;9.70;99.90;;;;;;5010290;28;20190;-68
2023/10/27 04:45:47;;;;;;;1.90;1.80;;;9.70;99.90;;;;;;5012920;28;20179;-67
2023/10/27 04:48:13;;;;;;;3.27;2.33;;;9.70;99.90;;;;;;5013686;28;20197;-68
2023/10/27 04:50:39;;;;;;;2.27;1.80;;;9.70;99.90;;;;;;5013727;28;20502;-67
2023/10/27 04:53:05;;;;;;;1.83;1.73;;;9.70;99.90;;;;;;5011949;28;21192;-67
2023/10/27 04:55:30;;;;;;;3.80;1.80;;;9.70;99.90;;;;;;5009682;28;20186;-67
2023/10/27 04:57:56;;;;;;;3.20;2.00;;;9.70;99.90;;;;;;5011761;28;20229;-67
2023/10/27 05:00:21;;;;;;;7.27;1.53;;;9.80;99.90;;;;;;5010929;28;20214;-67
2023/10/27 05:02:47;;;;;;;3.03;1.70;;;9.80;99.90;;;;;;5009772;28;20249;-67
2023/10/27 05:05:12;;;;;;;1.83;1.67;;;9.70;99.90;;;;;;5013009;28;20187;-67
2023/10/27 05:07:38;;;;;;;2.60;1.40;;;9.70;99.90;;;;;;5009818;28;20679;-67
2023/10/27 05:10:07;;;;;;;3.87;2.10;;;9.80;99.90;;;;;;5012892;28;20587;-67
2023/10/27 05:12:36;;;;;;;1.80;1.70;;;9.80;99.90;;;;;;5011614;28;20520;-67
2023/10/27 05:15:03;;;;;;;1.77;1.47;;;9.80;99.90;;;;;;5012597;28;20438;-67
2023/10/27 05:17:29;;;;;;;3.33;1.67;;;9.70;99.90;;;;;;5013155;28;20444;-67
2023/10/27 05:19:54;;;;;;;2.30;1.90;;;9.70;99.90;;;;;;5012988;28;20430;-67
2023/10/27 05:22:21;;;;;;;7.13;2.20;;;9.80;99.90;;;;;;5010048;28;20437;-67
2023/10/27 05:24:47;;;;;;;4.40;1.70;;;9.80;99.90;;;;;;5006583;28;20265;-67
2023/10/27 05:27:12;;;;;;;3.10;1.70;;;9.70;99.90;;;;;;5013294;28;20524;-67
2023/10/27 05:29:38;;;;;;;3.77;1.90;;;9.70;99.90;;;;;;5012973;28;20178;-67
2023/10/27 05:32:03;;;;;;;2.80;1.50;;;9.70;99.90;;;;;;5010971;28;20180;-67
2023/10/27 05:34:29;;;;;;;2.20;2.00;;;9.70;99.90;;;;;;5011239;28;20743;-67
2023/10/27 05:36:54;;;;;;;1.93;1.73;;;9.70;99.90;;;;;;5012295;28;20197;-67
2023/10/27 05:39:20;;;;;;;7.27;3.30;;;9.70;99.90;;;;;;5012664;28;20175;-67
2023/10/27 05:41:46;;;;;;;3.00;2.13;;;9.70;99.90;;;;;;5012223;28;20369;-67
2023/10/27 05:44:13;;;;;;;2.10;2.00;;;9.70;99.90;;;;;;5009297;28;20589;-67
2023/10/27 05:46:38;;;;;;;2.20;1.90;;;9.70;99.90;;;;;;4996363;28;20535;-67
2023/10/27 05:49:04;;;;;;;5.30;1.87;;;9.70;99.90;;;;;;5011246;28;20473;-67
2023/10/27 05:51:30;;;;;;;2.03;1.93;;;9.70;99.90;;;;;;5012600;28;20257;-67
2023/10/27 05:53:56;;;;;;;4.93;2.53;;;9.70;99.90;;;;;;5008396;28;20274;-67
2023/10/27 05:56:22;;;;;;;3.90;1.97;;;9.70;99.90;;;;;;5012254;28;20456;-67
2023/10/27 05:58:47;;;;;;;3.33;2.13;;;9.70;99.90;;;;;;5011182;28;20175;-67
2023/10/27 06:01:13;;;;;;;2.80;2.37;;;9.70;99.90;;;;;;5012347;28;20644;-67
2023/10/27 06:03:38;;;;;;;2.63;2.03;;;9.70;99.90;;;;;;5009601;28;20206;-67
2023/10/27 06:06:04;;;;;;;2.90;1.63;;;9.70;99.90;;;;;;5012453;28;20210;-67
2023/10/27 06:08:29;;;;;;;2.27;2.03;;;9.70;99.90;;;;;;5012247;28;20195;-67
2023/10/27 06:10:55;;;;;;;4.33;1.87;;;9.70;99.90;;;;;;5011686;28;20245;-67
2023/10/27 06:13:21;;;;;;;20.43;11.87;;;9.80;99.90;;;;;;5010311;28;20676;-67
2023/10/27 06:15:46;;;;;;;6.07;3.27;;;9.80;99.90;;;;;;5010983;28;20183;-67
2023/10/27 06:18:12;;;;;;;2.60;2.40;;;9.80;99.90;;;;;;5009781;28;20286;-67
2023/10/27 06:20:38;;;;;;;2.93;2.43;;;9.80;99.90;;;;;;5011141;28;20193;-67
2023/10/27 06:23:04;;;;;;;2.90;2.07;;;9.80;99.90;;;;;;5011927;28;20433;-67
2023/10/27 06:25:29;;;;;;;3.00;2.20;;;9.80;99.90;;;;;;5010877;28;20258;-70
2023/10/27 06:27:55;;;;;;;3.70;2.33;;;9.80;99.90;;;;;;5011348;28;20214;-69
2023/10/27 06:30:20;;;;;;;2.70;2.27;;;9.90;99.90;;;;;;5011396;28;20187;-69
2023/10/27 06:32:49;;;;;;;3.67;2.90;;;9.90;99.90;;;;;;5010451;28;20300;-69
2023/10/27 06:35:15;;;;;;;2.50;2.30;;;9.90;99.90;;;;;;5011255;28;20179;-72
2023/10/27 06:37:40;;;;;;;4.10;3.37;;;9.90;99.90;;;;;;5009538;28;21311;-72
2023/10/27 06:40:07;;;;;;;2.50;2.30;;;10.10;99.90;;;;;;5008653;28;20190;-70
2023/10/27 06:42:33;;;;;;;2.50;2.30;;;10.10;99.90;;;;;;5009506;28;20641;-70
2023/10/27 06:45:00;;;;;;;2.67;2.20;;;10.00;99.90;;;;;;5005313;28;20429;-69
2023/10/27 06:47:26;;;;;;;2.83;1.53;;;10.00;99.90;;;;;;5009518;28;20457;-69
2023/10/27 06:49:52;;;;;;;2.70;2.27;;;10.00;99.90;;;;;;5010956;28;20509;-70
2023/10/27 06:52:18;;;;;;;1.73;1.47;;;10.00;99.90;;;;;;5010585;28;20512;-71
2023/10/27 06:54:43;;;;;;;3.13;1.73;;;10.00;99.90;;;;;;5007488;28;20198;-70
2023/10/27 06:57:10;;;;;;;1.90;1.70;;;10.00;99.90;;;;;;5010576;28;20706;-68
2023/10/27 06:59:36;;;;;;;2.40;1.60;;;10.00;99.90;;;;;;5008198;28;20175;-67
2023/10/27 07:02:03;;;;;;;1.57;1.47;;;10.00;99.90;;;;;;5009940;28;20455;-67
2023/10/27 07:04:28;;;;;;;1.70;1.40;;;10.10;99.90;;;;;;5011065;28;20279;-67
2023/10/27 07:06:54;;;;;;;1.70;1.53;;;10.10;99.90;;;;;;5013303;28;20540;-67
2023/10/27 07:09:19;;;;;;;21.53;11.93;;;10.10;99.90;;;;;;5013949;28;20182;-67
2023/10/27 07:11:45;;;;;;;5.10;3.00;;;10.20;99.90;;;;;;5014943;28;20666;-67
2023/10/27 07:14:13;;;;;;;4.00;2.53;;;10.20;99.90;;;;;;5012070;28;20213;-68
2023/10/27 07:16:40;;;;;;;2.50;2.10;;;10.20;99.90;;;;;;5021532;28;20612;-67
2023/10/27 07:19:06;;;;;;;1.30;1.20;;;10.20;99.90;;;;;;5006827;28;20848;-67
2023/10/27 07:21:33;;;;;;;2.70;1.63;;;10.20;99.90;;;;;;5012975;28;20433;-67
2023/10/27 07:23:59;;;;;;;1.90;1.23;;;10.20;99.90;;;;;;5013411;28;20671;-70
2023/10/27 07:26:25;;;;;;;2.37;1.20;;;10.30;99.90;;;;;;5013371;28;20449;-70
2023/10/27 07:28:51;;;;;;;2.03;1.27;;;10.30;99.90;;;;;;5006430;28;20449;-69
2023/10/27 07:31:16;;;;;;;1.10;0.97;;;10.30;99.90;;;;;;5011814;28;20442;-67
2023/10/27 07:33:43;;;;;;;3.30;1.40;;;10.40;99.90;;;;;;5012401;28;20252;-67
2023/10/27 07:36:10;;;;;;;0.93;0.93;;;10.50;99.90;;;;;;5016721;28;20185;-65
2023/10/27 07:38:36;;;;;;;3.23;1.60;;;10.60;99.90;;;;;;5013603;28;20825;-65
2023/10/27 07:41:03;;;;;;;2.30;1.23;;;10.80;99.90;;;;;;5011581;28;20441;-64
2023/10/27 07:43:29;;;;;;;0.80;0.80;;;10.80;99.90;;;;;;5012590;28;20183;-65
2023/10/27 07:45:55;;;;;;;0.90;0.80;;;10.90;99.90;;;;;;5011944;28;20491;-65
2023/10/27 07:48:21;;;;;;;1.27;0.90;;;11.00;99.90;;;;;;5012830;28;20460;-65
2023/10/27 07:50:47;;;;;;;2.83;0.90;;;11.10;99.90;;;;;;5013601;28;20183;-65
2023/10/27 07:53:12;;;;;;;0.90;0.70;;;11.00;99.90;;;;;;5015047;28;21037;-67
2023/10/27 07:55:38;;;;;;;1.17;1.07;;;11.00;99.90;;;;;;5013088;28;20183;-66
2023/10/27 07:58:04;;;;;;;2.10;0.70;;;10.90;99.90;;;;;;5013312;28;20194;-66
2023/10/27 08:00:31;;;;;;;1.37;0.87;;;10.90;99.90;;;;;;5009062;28;20179;-66
2023/10/27 08:02:57;;;;;;;2.20;0.87;;;10.90;99.90;;;;;;5011999;28;20442;-66
2023/10/27 08:05:22;;;;;;;1.20;1.07;;;10.90;99.90;;;;;;5012088;28;20434;-66
2023/10/27 08:07:48;;;;;;;0.97;0.87;;;11.00;99.90;;;;;;5012902;28;20472;-66
2023/10/27 08:10:14;;;;;;;1.27;1.00;;;11.00;99.90;;;;;;5013421;28;20187;-66
2023/10/27 08:12:40;;;;;;;0.80;0.70;;;11.10;99.90;;;;;;5009252;28;20183;-66
2023/10/27 08:15:06;;;;;;;1.17;0.67;;;11.30;99.90;;;;;;5013354;28;20480;-66
2023/10/27 08:17:35;;;;;;;0.80;0.60;;;11.20;99.90;;;;;;5013023;28;20209;-66
2023/10/27 08:20:01;;;;;;;2.00;0.60;;;11.30;99.90;;;;;;5011249;28;20433;-65
2023/10/27 08:22:27;;;;;;;0.83;0.60;;;11.40;99.90;;;;;;5011747;28;20446;-66
2023/10/27 08:24:53;;;;;;;1.33;1.20;;;11.50;99.90;;;;;;5012571;28;20458;-66
2023/10/27 08:27:18;;;;;;;1.37;0.70;;;11.50;99.90;;;;;;5011674;28;20253;-65
2023/10/27 08:29:44;;;;;;;0.80;0.80;;;11.50;99.90;;;;;;5011626;28;20182;-66
2023/10/27 08:32:09;;;;;;;4.77;2.90;;;11.40;99.90;;;;;;5010806;28;20590;-66
2023/10/27 08:34:35;;;;;;;0.77;0.70;;;11.30;99.90;;;;;;5012158;28;20767;-66
2023/10/27 08:37:00;;;;;;;1.07;0.97;;;11.30;99.90;;;;;;5011804;28;20187;-66
2023/10/27 08:39:27;;;;;;;0.70;0.70;;;11.20;99.90;;;;;;5011800;28;20269;-66
2023/10/27 08:41:54;;;;;;;0.73;0.73;;;11.20;99.90;;;;;;5010418;28;20174;-66
2023/10/27 08:44:20;;;;;;;1.07;0.70;;;11.10;99.90;;;;;;5012715;28;20446;-66
2023/10/27 08:46:47;;;;;;;3.07;1.90;;;11.00;99.90;;;;;;5016455;28;20452;-66
2023/10/27 08:49:12;;;;;;;1.37;1.23;;;11.00;99.90;;;;;;5012807;28;20434;-66
2023/10/27 08:51:39;;;;;;;1.80;0.70;;;10.90;99.90;;;;;;5012410;28;20457;-66
2023/10/27 08:54:05;;;;;;;1.30;1.20;;;11.00;99.90;;;;;;5010860;28;20218;-66
2023/10/27 08:56:31;;;;;;;2.90;0.93;;;11.10;99.90;;;;;;5011406;28;20820;-66
2023/10/27 08:58:58;;;;;;;1.00;0.90;;;11.20;99.90;;;;;;5026863;28;20517;-66
2023/10/27 09:01:26;;;;;;;0.80;0.63;;;11.10;99.90;;;;;;5007816;28;20437;-65
2023/10/27 09:04:08;;;;;;;0.70;0.70;;;10.90;99.90;;;;;;5009901;28;20956;-66
2023/10/27 09:06:37;;;;;;;1.30;0.50;;;10.90;99.90;;;;;;5011842;28;20537;-69
2023/10/27 09:09:05;;;;;;;0.80;0.80;;;10.80;99.90;;;;;;5007318;28;20430;-68
2023/10/27 09:11:40;;;;;;;1.17;0.70;;;10.80;99.90;;;;;;5010855;28;20810;-68
2023/10/27 09:14:19;;;;;;;0.80;0.80;;;10.80;99.90;;;;;;5011823;28;20827;-68
2023/10/27 09:16:45;;;;;;;1.77;0.70;;;10.80;99.90;;;;;;5008387;28;20486;-68
2023/10/27 09:19:19;;;;;;;2.10;0.70;;;10.70;99.90;;;;;;5010175;28;20437;-68
2023/10/27 09:21:45;;;;;;;1.27;0.77;;;10.70;99.90;;;;;;5004552;28;20437;-69
2023/10/27 09:24:11;;;;;;;3.07;2.60;;;10.70;99.90;;;;;;5011390;28;20437;-68
2023/10/27 09:26:48;;;;;;;1.33;1.10;;;10.80;99.90;;;;;;5011071;28;20264;-69
2023/10/27 09:29:14;;;;;;;1.07;1.00;;;10.80;99.90;;;;;;5006933;28;20449;-68
2023/10/27 09:31:40;;;;;;;1.80;1.70;;;10.80;99.90;;;;;;5012167;28;20434;-67
2023/10/27 09:34:23;;;;;;;2.20;1.40;;;10.80;99.90;;;;;;5009992;28;20461;-67
2023/10/27 09:36:57;;;;;;;1.67;0.90;;;10.80;99.90;;;;;;5009772;28;20627;-67
2023/10/27 09:39:23;;;;;;;1.90;1.20;;;10.80;99.90;;;;;;5010443;28;20429;-68
2023/10/27 09:42:01;;;;;;;3.10;2.80;;;10.80;99.90;;;;;;5009310;28;20528;-69
2023/10/27 09:44:55;;;;;;;2.20;2.00;;;10.90;99.90;;;;;;5011854;28;20449;-69
2023/10/27 09:47:33;;;;;;;2.70;1.60;;;11.10;99.90;;;;;;5011042;28;20492;-70
2023/10/27 09:50:08;;;;;;;1.27;1.10;;;11.10;99.90;;;;;;5011240;28;20532;-68
2023/10/27 09:52:34;;;;;;;1.93;1.27;;;11.20;99.90;;;;;;5013009;28;20841;-68
2023/10/27 09:55:03;;;;;;;1.23;1.13;;;11.00;99.90;;;;;;5016030;28;20442;-67
2023/10/27 09:57:29;;;;;;;2.70;1.60;;;11.00;99.90;;;;;;5003051;28;21187;-68
2023/10/27 09:59:56;;;;;;;1.97;1.30;;;11.00;99.90;;;;;;5007196;28;20490;-68
2023/10/27 10:02:23;;;;;;;1.70;1.30;;;11.10;99.90;;;;;;5010991;28;20259;-64
2023/10/27 10:04:52;;;;;;;1.80;1.37;;;11.20;99.90;;;;;;5005591;28;20825;-67
2023/10/27 10:07:33;;;;;;;3.20;1.47;;;11.30;99.90;;;;;;5008462;28;20846;-70
2023/10/27 10:10:20;;;;;;;3.67;2.40;;;11.30;99.90;;;;;;5011544;28;20444;-65
2023/10/27 10:13:12;;;;;;;3.30;2.80;;;11.40;99.90;;;;;;5004397;28;20438;-66
2023/10/27 10:15:39;;;;;;;3.90;3.13;;;11.50;99.90;;;;;;5011325;28;20519;-69
2023/10/27 10:18:06;;;;;;;4.67;1.83;;;11.60;99.90;;;;;;5007704;28;20465;-68
2023/10/27 10:20:52;;;;;;;4.93;3.33;;;11.60;99.90;;;;;;5010781;28;20448;-70
2023/10/27 10:23:18;;;;;;;2.00;1.90;;;11.70;99.90;;;;;;5006511;28;20510;-70
2023/10/27 10:25:56;;;;;;;3.43;2.43;;;11.80;99.90;;;;;;5009305;28;20473;-69
2023/10/27 10:28:36;;;;;;;2.87;2.00;;;11.90;99.90;;;;;;5009254;28;20918;-69
2023/10/27 10:31:07;;;;;;;6.23;2.00;;;11.90;99.90;;;;;;5011451;28;20552;-69
2023/10/27 10:33:37;;;;;;;3.13;1.93;;;12.20;99.90;;;;;;5010424;28;20504;-70
2023/10/27 10:36:14;;;;;;;2.40;1.40;;;13.20;99.90;;;;;;5013035;28;21155;-69
2023/10/27 10:38:43;;;;;;;7.90;5.30;;;14.70;99.90;;;;;;5011284;28;20529;-71
2023/10/27 10:41:09;;;;;;;2.57;2.37;;;16.70;99.90;;;;;;5016913;28;20429;-71
2023/10/27 10:43:38;;;;;;;4.63;1.50;;;18.60;99.90;;;;;;5012372;28;20437;-69
2023/10/27 10:46:10;;;;;;;3.60;2.07;;;19.50;99.90;;;;;;5014567;28;20448;-70
2023/10/27 10:48:40;;;;;;;2.03;1.83;;;20.60;99.90;;;;;;5015012;28;20785;-71
2023/10/27 10:51:25;;;;;;;2.27;1.90;;;21.70;99.90;;;;;;5014513;28;20432;-70
2023/10/27 10:53:55;;;;;;;2.27;1.43;;;21.20;99.90;;;;;;5013397;28;20454;-72
2023/10/27 10:56:21;;;;;;;2.37;1.70;;;21.00;99.90;;;;;;5009860;28;20422;-70
2023/10/27 10:58:46;;;;;;;4.20;1.43;;;20.20;99.90;;;;;;5015389;28;20410;-70
2023/10/27 11:01:17;;;;;;;3.83;1.77;;;19.70;99.90;;;;;;5015377;28;20471;-70
2023/10/27 11:03:47;;;;;;;2.73;2.20;;;20.50;99.90;;;;;;5009693;28;20954;-70
2023/10/27 11:06:13;;;;;;;2.43;1.23;;;22.00;99.90;;;;;;5012634;28;20441;-71
2023/10/27 11:08:39;;;;;;;1.77;1.30;;;22.80;99.90;;;;;;5012926;28;20461;-69
2023/10/27 11:11:05;;;;;;;1.87;1.30;;;23.60;99.70;;;;;;5014746;28;20187;-69
2023/10/27 11:13:33;;;;;;;5.87;1.53;;;23.40;99.30;;;;;;5012569;28;20483;-72
2023/10/27 11:16:00;;;;;;;1.73;1.30;;;23.40;99.00;;;;;;5014883;28;20508;-70
2023/10/27 11:18:31;;;;;;;2.50;1.50;;;23.60;97.60;;;;;;5014384;28;20460;-71
2023/10/27 11:20:57;;;;;;;4.27;1.30;;;23.50;96.20;;;;;;5015161;28;20475;-69
2023/10/27 11:23:30;;;;;;;2.13;1.37;;;24.70;93.80;;;;;;5010196;28;20452;-70
2023/10/27 11:26:03;;;;;;;2.17;1.37;;;26.30;90.60;;;;;;5011698;28;20441;-70
2023/10/27 11:28:29;;;;;;;2.63;1.73;;;26.50;81.10;;;;;;5013395;28;20481;-72
2023/10/27 11:31:08;;;;;;;2.80;1.50;;;27.90;76.70;;;;;;5015042;28;21022;-70
2023/10/27 11:34:04;;;;;;;6.53;1.83;;;28.90;68.80;;;;;;5012901;28;20285;-70
2023/10/27 11:36:32;;;;;;;2.43;1.50;;;27.80;63.20;;;;;;5013565;28;20461;-70
2023/10/27 11:39:10;;;;;;;1.67;1.00;;;28.90;63.30;;;;;;5014816;28;20496;-70
2023/10/27 11:41:35;;;;;;;2.30;1.20;;;28.90;58.10;;;;;;5013526;28;20437;-70
2023/10/27 11:44:01;;;;;;;1.20;1.10;;;28.50;57.90;;;;;;5009536;28;20434;-70
2023/10/27 11:46:26;;;;;;;3.20;1.50;;;27.50;57.80;;;;;;5013169;28;20640;-73
2023/10/27 11:48:52;;;;;;;8.17;1.60;;;26.90;60.20;;;;;;5012737;28;20197;-69
2023/10/27 11:51:17;;;;;;;1.40;1.17;;;28.10;55.90;;;;;;5013583;28;20186;-72
2023/10/27 11:53:44;;;;;;;1.77;1.20;;;26.10;56.10;;;;;;5011931;28;20206;-72
2023/10/27 11:56:10;;;;;;;4.23;2.00;;;25.00;59.90;;;;;;5014018;28;20175;-70
2023/10/27 11:58:37;;;;;;;2.30;1.93;;;23.30;69.10;;;;;;5015720;28;20484;-69
2023/10/27 12:01:03;;;;;;;2.40;1.70;;;22.30;78.90;;;;;;5010776;28;20438;-70
2023/10/27 12:03:28;;;;;;;3.63;1.70;;;21.00;93.70;;;;;;5009163;28;20450;-71
2023/10/27 12:05:54;;;;;;;1.90;1.27;;;21.20;92.80;;;;;;5011963;28;20452;-71
2023/10/27 12:08:20;;;;;;;3.90;1.17;;;23.20;84.20;;;;;;5012147;28;20206;-70
2023/10/27 12:10:48;;;;;;;2.03;1.33;;;24.00;74.70;;;;;;5012820;28;20193;-70
2023/10/27 12:13:14;;;;;;;1.80;1.13;;;24.50;71.00;;;;;;5013025;28;20575;-70
2023/10/27 12:15:40;;;;;;;2.67;1.67;;;25.80;65.40;;;;;;5019755;28;20437;-70
2023/10/27 12:18:08;;;;;;;1.30;0.90;;;26.00;64.40;;;;;;5008360;28;20498;-70
2023/10/27 12:20:35;;;;;;;2.33;1.10;;;25.40;61.30;;;;;;5013870;28;20209;-70
2023/10/27 12:23:01;;;;;;;2.43;1.30;;;25.00;65.40;;;;;;5012289;28;20766;-70
2023/10/27 12:25:27;;;;;;;0.97;0.80;;;26.70;61.90;;;;;;5011317;28;20460;-70
2023/10/27 12:27:52;;;;;;;1.97;1.13;;;27.40;56.90;;;;;;5010924;28;20214;-70
2023/10/27 12:30:18;;;;;;;1.37;1.27;;;26.70;57.10;;;;;;5011019;28;20606;-70
2023/10/27 12:32:44;;;;;;;1.97;1.10;;;26.40;57.30;;;;;;5012790;28;20649;-70
2023/10/27 12:35:11;;;;;;;1.83;1.10;;;24.60;63.40;;;;;;5013673;28;20203;-69
2023/10/27 12:37:36;;;;;;;4.33;1.90;;;23.50;65.00;;;;;;5008612;28;20458;-70
2023/10/27 12:40:06;;;;;;;1.27;1.00;;;22.60;71.10;;;;;;5010958;28;20898;-70
2023/10/27 12:42:31;;;;;;;1.73;1.43;;;21.50;78.50;;;;;;5012029;28;20189;-70
2023/10/27 12:44:57;;;;;;;7.30;1.30;;;20.00;89.30;;;;;;5012814;28;20441;-69
2023/10/27 12:47:23;;;;;;;2.80;1.60;;;19.30;94.70;;;;;;5013466;28;20207;-69
2023/10/27 12:49:49;;;;;;;1.70;0.97;;;18.80;96.50;;;;;;5007022;28;20192;-69